createdAt,value
2022-08-02T00:02:56.044Z,1.38
2022-08-02T00:05:58.444Z,1.30
2022-08-02T00:09:00.999Z,1.30
2022-08-02T00:12:02.993Z,1.33
2022-08-02T00:15:06.889Z,1.35
2022-08-02T00:18:08.970Z,1.40
2022-08-02T00:21:11.140Z,1.50
2022-08-02T00:24:29.572Z,1.58
2022-08-02T00:27:32.298Z,1.58
2022-08-02T00:30:34.482Z,1.55
2022-08-02T00:34:05.234Z,1.73
2022-08-02T00:36:58.815Z,1.48
2022-08-02T00:40:02.343Z,1.50
2022-08-02T00:43:09.783Z,1.45
2022-08-02T00:46:12.248Z,1.30
2022-08-02T00:49:15.288Z,1.70
2022-08-02T00:52:18.903Z,1.58
2022-08-02T00:55:31.183Z,1.33
2022-08-02T00:58:33.613Z,1.67
2022-08-02T01:01:57.533Z,1.38
2022-08-02T01:05:00.455Z,1.40
2022-08-02T01:08:03.089Z,2.05
2022-08-02T01:11:04.952Z,1.20
2022-08-02T01:14:11.512Z,1.33
2022-08-02T01:17:25.313Z,1.45
2022-08-02T01:20:42.963Z,1.48
2022-08-02T01:23:47.809Z,1.52
2022-08-02T01:26:54.113Z,1.30
2022-08-02T01:29:59.417Z,1.40
2022-08-02T01:33:04.307Z,1.40
2022-08-02T01:36:10.908Z,1.27
2022-08-02T01:39:26.648Z,1.30
2022-08-02T01:42:35.262Z,1.30
2022-08-02T01:45:40.152Z,2.15
2022-08-02T01:48:43.049Z,1.50
2022-08-02T01:52:06.268Z,1.40
2022-08-02T01:55:18.569Z,1.48
2022-08-02T01:58:25.260Z,1.58
2022-08-02T02:01:27.428Z,1.95
2022-08-02T02:04:31.671Z,1.30
2022-08-02T02:07:35.457Z,1.52
2022-08-02T02:10:39.652Z,1.60
2022-08-02T02:13:42.716Z,1.42
2022-08-02T02:16:47.628Z,1.63
2022-08-02T02:19:49.928Z,1.70
2022-08-02T02:22:52.752Z,1.73
2022-08-02T02:25:55.853Z,1.35
2022-08-02T02:29:01.393Z,1.70
2022-08-02T02:32:06.142Z,1.35
2022-08-02T02:35:09.232Z,1.85
2022-08-02T02:38:14.212Z,1.60
2022-08-02T02:41:17.447Z,1.50
2022-08-02T02:44:21.213Z,1.45
2022-08-02T02:47:23.798Z,1.60
2022-08-02T02:50:43.997Z,1.80
2022-08-02T02:54:30.693Z,1.70
2022-08-02T02:57:11.629Z,1.60
2022-08-02T03:00:14.682Z,1.48
2022-08-02T03:03:17.207Z,1.45
2022-08-02T03:06:23.612Z,1.55
2022-08-02T03:09:25.663Z,1.40
2022-08-02T03:12:31.893Z,1.63
2022-08-02T03:15:35.093Z,1.58
2022-08-02T03:18:39.221Z,1.60
2022-08-02T03:21:42.420Z,1.25
2022-08-02T03:24:44.707Z,1.95
2022-08-02T03:27:47.383Z,1.33
2022-08-02T03:30:49.343Z,1.60
2022-08-02T03:33:51.307Z,1.73
2022-08-02T03:36:56.397Z,1.70
2022-08-02T03:39:59.433Z,1.57
2022-08-02T03:43:02.437Z,1.83
2022-08-02T03:46:05.137Z,1.70
2022-08-02T03:49:11.334Z,1.67
2022-08-02T03:52:14.020Z,1.50
2022-08-02T03:55:16.243Z,1.90
2022-08-02T03:58:22.732Z,2.00
2022-08-02T04:01:24.948Z,1.63
2022-08-02T04:04:26.903Z,1.90
2022-08-02T04:08:33.081Z,1.70
2022-08-02T04:11:09.348Z,1.43
2022-08-02T04:14:12.528Z,1.50
2022-08-02T04:17:15.956Z,1.90
2022-08-02T04:20:25.148Z,1.80
2022-08-02T04:23:27.448Z,1.53
2022-08-02T04:26:30.778Z,1.70
2022-08-02T04:29:33.319Z,1.87
2022-08-02T04:32:36.543Z,2.13
2022-08-02T04:35:38.468Z,1.60
2022-08-02T04:38:40.439Z,1.77
2022-08-02T04:41:44.516Z,1.50
2022-08-02T04:44:47.180Z,1.90
2022-08-02T04:48:03.536Z,1.77
2022-08-02T04:51:06.102Z,1.80
2022-08-02T04:54:10.392Z,2.03
2022-08-02T04:57:31.070Z,1.57
2022-08-02T05:00:32.990Z,1.90
2022-08-02T05:03:34.913Z,1.67
2022-08-02T05:06:37.105Z,1.90
2022-08-02T05:09:39.053Z,1.52
2022-08-02T05:12:41.387Z,1.67
2022-08-02T05:15:43.334Z,1.70
2022-08-02T05:18:45.339Z,1.52
2022-08-02T05:21:47.228Z,1.75
2022-08-02T05:24:49.433Z,1.73
2022-08-02T05:27:51.423Z,1.50
2022-08-02T05:30:53.553Z,1.35
2022-08-02T05:33:56.288Z,1.65
2022-08-02T05:36:58.164Z,1.73
2022-08-02T05:40:01.934Z,1.50
2022-08-02T05:43:06.738Z,1.80
2022-08-02T05:46:08.963Z,1.50
2022-08-02T05:49:10.881Z,1.80
2022-08-02T05:52:17.306Z,1.80
2022-08-02T05:55:27.233Z,1.40
2022-08-02T05:58:37.098Z,1.40
2022-08-02T06:01:42.824Z,1.73
2022-08-02T06:05:12.246Z,1.45
2022-08-02T06:08:14.603Z,1.90
2022-08-02T06:11:23.813Z,2.30
2022-08-02T06:14:30.047Z,1.48
2022-08-02T06:17:33.221Z,1.58
2022-08-02T06:20:36.365Z,1.48
2022-08-02T06:23:58.749Z,1.52
2022-08-02T06:27:02.840Z,1.63
2022-08-02T06:30:06.267Z,1.35
2022-08-02T06:33:08.265Z,1.70
2022-08-02T06:36:32.879Z,1.63
2022-08-02T06:39:46.933Z,1.80
2022-08-02T06:42:50.345Z,1.85
2022-08-02T06:45:52.319Z,1.20
2022-08-02T06:48:54.743Z,1.50
2022-08-02T06:51:56.854Z,1.42
2022-08-02T06:55:01.727Z,1.75
2022-08-02T06:58:03.760Z,1.73
2022-08-02T07:01:07.661Z,1.30
2022-08-02T07:04:09.954Z,1.88
2022-08-02T07:07:12.018Z,1.75
2022-08-02T07:10:14.479Z,1.35
2022-08-02T07:13:16.475Z,1.77
2022-08-02T07:16:18.429Z,1.70
2022-08-02T07:19:20.347Z,1.80
2022-08-02T07:22:24.581Z,1.55
2022-08-02T07:25:26.713Z,2.25
2022-08-02T07:28:48.568Z,2.20
2022-08-02T07:31:50.690Z,1.88
2022-08-02T07:34:54.087Z,2.13
2022-08-02T07:38:02.011Z,1.70
2022-08-02T07:41:04.543Z,1.80
2022-08-02T07:44:06.752Z,1.50
2022-08-02T07:47:09.073Z,1.42
2022-08-02T07:50:13.474Z,1.60
2022-08-02T07:53:15.375Z,1.70
2022-08-02T07:56:17.322Z,1.58
2022-08-02T07:59:19.693Z,1.70
2022-08-02T08:02:21.748Z,1.35
2022-08-02T08:05:24.089Z,1.40
2022-08-02T08:08:25.989Z,1.80
2022-08-02T08:11:27.907Z,1.60
2022-08-02T08:14:29.873Z,1.52
2022-08-02T08:17:31.804Z,1.80
2022-08-02T08:20:33.943Z,1.50
2022-08-02T08:23:36.908Z,1.50
2022-08-02T08:26:40.282Z,1.70
2022-08-02T08:29:43.120Z,1.58
2022-08-02T08:32:46.152Z,1.50
2022-08-02T08:35:48.038Z,1.40
2022-08-02T08:38:50.612Z,1.55
2022-08-02T08:41:52.573Z,1.50
2022-08-02T08:44:58.671Z,1.40
2022-08-02T08:48:08.802Z,1.50
2022-08-02T08:51:13.742Z,1.30
2022-08-02T08:54:17.288Z,1.13
2022-08-02T08:57:20.565Z,1.30
2022-08-02T09:00:22.862Z,1.17
2022-08-02T09:03:24.807Z,1.23
2022-08-02T09:06:26.688Z,1.58
2022-08-02T09:09:28.663Z,1.13
2022-08-02T09:12:30.564Z,1.20
2022-08-02T09:15:32.584Z,1.20
2022-08-02T09:18:44.132Z,1.30
2022-08-02T09:21:46.733Z,1.05
2022-08-02T09:24:51.531Z,1.10
2022-08-02T09:27:53.908Z,1.02
2022-08-02T09:30:58.499Z,1.17
2022-08-02T09:34:01.729Z,1.13
2022-08-02T09:37:03.944Z,1.20
2022-08-02T09:40:07.242Z,1.17
2022-08-02T09:43:10.728Z,1.25
2022-08-02T09:46:24.257Z,1.10
2022-08-02T09:49:27.198Z,0.98
2022-08-02T09:52:37.169Z,1.05
2022-08-02T09:55:56.745Z,1.10
2022-08-02T09:58:58.632Z,1.00
2022-08-02T10:02:04.058Z,0.90
2022-08-02T10:05:06.909Z,1.20
2022-08-02T10:08:08.989Z,0.90
2022-08-02T10:11:12.638Z,1.08
2022-08-02T10:14:14.720Z,1.17
2022-08-02T10:17:17.123Z,1.00
2022-08-02T10:20:19.016Z,1.50
2022-08-02T10:23:21.138Z,1.17
2022-08-02T10:26:23.277Z,1.30
2022-08-02T10:29:55.370Z,0.90
2022-08-02T10:32:59.194Z,0.98
2022-08-02T10:36:04.560Z,1.33
2022-08-02T10:39:10.783Z,0.98
2022-08-02T10:42:14.254Z,1.30
2022-08-02T10:45:18.680Z,1.45
2022-08-02T10:48:21.871Z,0.90
2022-08-02T10:51:24.577Z,1.10
2022-08-02T10:54:37.263Z,0.88
2022-08-02T10:57:39.447Z,1.13
2022-08-02T11:00:41.415Z,1.00
2022-08-02T11:03:45.268Z,0.85
2022-08-02T11:07:10.162Z,1.23
2022-08-02T11:10:28.557Z,1.05
2022-08-02T11:13:30.793Z,1.00
2022-08-02T11:16:57.698Z,0.82
2022-08-02T11:20:08.702Z,0.77
2022-08-02T11:23:45.221Z,0.95
2022-08-02T11:26:47.952Z,0.90
2022-08-02T11:29:50.173Z,0.90
2022-08-02T11:32:57.338Z,0.90
2022-08-02T11:36:04.433Z,0.88
2022-08-02T11:39:11.059Z,1.05
2022-08-02T11:42:14.033Z,1.10
2022-08-02T11:45:21.016Z,1.30
2022-08-02T11:48:38.462Z,1.42
2022-08-02T11:51:54.106Z,1.00
2022-08-02T11:54:56.508Z,1.10
2022-08-02T11:58:05.747Z,1.20
2022-08-02T12:01:08.661Z,1.13
2022-08-02T12:04:10.946Z,1.10
2022-08-02T12:07:12.842Z,1.08
2022-08-02T12:10:19.555Z,4.32
2022-08-02T12:13:21.732Z,1.20
2022-08-02T12:16:43.142Z,1.23
2022-08-02T12:19:45.743Z,1.48
2022-08-02T12:22:47.607Z,1.42
2022-08-02T12:26:05.123Z,1.25
2022-08-02T12:29:07.477Z,1.00
2022-08-02T12:32:24.245Z,3.22
2022-08-02T12:35:31.062Z,2.45
2022-08-02T12:38:33.007Z,1.50
2022-08-02T12:41:35.589Z,1.35
2022-08-02T12:44:59.062Z,1.40
2022-08-02T12:48:01.704Z,1.02
2022-08-02T12:51:50.754Z,0.98
2022-08-02T12:55:01.398Z,0.90
2022-08-02T12:58:05.284Z,0.90
2022-08-02T13:01:07.543Z,0.82
2022-08-02T13:04:29.453Z,0.90
2022-08-02T13:07:31.637Z,0.90
2022-08-02T13:10:33.858Z,0.80
2022-08-02T13:13:35.773Z,1.00
2022-08-02T13:16:37.772Z,0.80
2022-08-02T13:19:41.072Z,0.85
2022-08-02T13:22:52.903Z,0.90
2022-08-02T13:25:56.303Z,0.93
2022-08-02T13:28:58.570Z,0.88
2022-08-02T13:32:00.587Z,0.70
2022-08-02T13:35:02.498Z,0.95
2022-08-02T13:38:06.928Z,0.70
2022-08-02T13:41:09.257Z,1.02
2022-08-02T13:44:11.268Z,0.70
2022-08-02T13:47:13.277Z,1.00
2022-08-02T13:50:15.662Z,0.82
2022-08-02T13:53:17.684Z,0.57
2022-08-02T13:56:19.702Z,0.80
2022-08-02T13:59:56.307Z,1.10
2022-08-02T14:02:59.827Z,1.15
2022-08-02T14:06:01.867Z,0.80
2022-08-02T14:09:04.357Z,0.90
2022-08-02T14:12:06.910Z,1.10
2022-08-02T14:15:09.828Z,0.80
2022-08-02T14:18:12.581Z,0.88
2022-08-02T14:21:14.473Z,1.00
2022-08-02T14:24:21.734Z,0.88
2022-08-02T14:27:24.372Z,0.70
2022-08-02T14:30:26.370Z,0.82
2022-08-02T14:33:28.213Z,0.90
2022-08-02T14:36:30.103Z,1.10
2022-08-02T14:39:43.342Z,0.93
2022-08-02T14:42:54.083Z,0.80
2022-08-02T14:45:56.057Z,0.80
2022-08-02T14:48:58.155Z,0.80
2022-08-02T14:52:00.078Z,0.90
2022-08-02T14:55:03.043Z,0.60
2022-08-02T14:58:04.934Z,0.68
2022-08-02T15:01:07.854Z,0.65
2022-08-02T15:04:09.919Z,0.77
2022-08-02T15:07:13.795Z,0.80
2022-08-02T15:10:15.713Z,0.60
2022-08-02T15:13:17.928Z,0.65
2022-08-02T15:16:19.898Z,0.90
2022-08-02T15:19:21.802Z,0.68
2022-08-02T15:22:24.130Z,1.08
2022-08-02T15:25:26.328Z,0.85
2022-08-02T15:28:29.873Z,0.82
2022-08-02T15:31:33.276Z,1.10
2022-08-02T15:34:35.730Z,0.70
2022-08-02T15:37:41.379Z,0.60
2022-08-02T15:40:43.813Z,0.68
2022-08-02T15:44:00.930Z,0.77
2022-08-02T15:47:07.296Z,0.70
2022-08-02T15:50:10.657Z,0.60
2022-08-02T15:53:12.902Z,0.82
2022-08-02T15:56:14.810Z,0.50
2022-08-02T15:59:17.777Z,0.60
2022-08-02T16:02:20.752Z,0.60
2022-08-02T16:05:22.842Z,0.60
2022-08-02T16:08:24.763Z,0.50
2022-08-02T16:11:27.007Z,0.70
2022-08-02T16:14:28.962Z,0.68
2022-08-02T16:17:53.428Z,0.70
2022-08-02T16:20:52.843Z,0.50
2022-08-02T16:24:02.586Z,0.73
2022-08-02T16:27:05.218Z,0.70
2022-08-02T16:30:08.259Z,0.60
2022-08-02T16:33:10.133Z,0.50
2022-08-02T16:36:13.961Z,0.70
2022-08-02T16:39:15.898Z,0.60
2022-08-02T16:42:25.272Z,1.40
2022-08-02T16:45:29.333Z,1.25
2022-08-02T16:48:34.488Z,1.35
2022-08-02T16:51:36.518Z,1.00
2022-08-02T16:54:38.519Z,1.30
2022-08-02T16:57:46.063Z,0.70
2022-08-02T17:00:53.095Z,0.88
2022-08-02T17:03:57.782Z,0.93
2022-08-02T17:06:59.948Z,0.77
2022-08-02T17:10:06.752Z,0.82
2022-08-02T17:13:12.154Z,0.82
2022-08-02T17:16:20.270Z,0.77
2022-08-02T17:19:27.465Z,0.63
2022-08-02T17:22:29.483Z,1.10
2022-08-02T17:25:32.214Z,0.55
2022-08-02T17:28:35.544Z,0.70
2022-08-02T17:32:04.924Z,0.90
2022-08-02T17:35:11.654Z,0.70
2022-08-02T17:38:26.065Z,0.43
2022-08-02T17:41:38.113Z,0.90
2022-08-02T17:44:54.898Z,0.70
2022-08-02T17:48:08.818Z,0.70
2022-08-02T17:51:10.848Z,0.85
2022-08-02T17:54:13.798Z,0.90
2022-08-02T17:57:15.747Z,0.85
2022-08-02T18:00:18.272Z,1.00
2022-08-02T18:03:20.114Z,0.75
2022-08-02T18:06:26.130Z,0.80
2022-08-02T18:09:30.082Z,0.70
2022-08-02T18:12:32.758Z,1.00
2022-08-02T18:15:34.778Z,0.90
2022-08-02T18:18:37.575Z,1.10
2022-08-02T18:21:39.919Z,0.95
2022-08-02T18:24:42.126Z,0.90
2022-08-02T18:27:46.774Z,0.80
2022-08-02T18:30:48.703Z,1.20
2022-08-02T18:33:59.778Z,1.23
2022-08-02T18:37:04.113Z,1.23
2022-08-02T18:40:06.851Z,0.95
2022-08-02T18:43:08.998Z,1.17
2022-08-02T18:46:20.073Z,1.10
2022-08-02T18:49:24.128Z,1.10
2022-08-02T18:52:31.998Z,1.05
2022-08-02T18:55:59.837Z,1.50
2022-08-02T18:58:58.827Z,1.10
2022-08-02T19:02:00.883Z,1.10
2022-08-02T19:05:02.896Z,1.00
2022-08-02T19:08:09.342Z,1.20
2022-08-02T19:11:11.910Z,1.00
2022-08-02T19:14:13.852Z,1.10
2022-08-02T19:17:54.914Z,0.98
2022-08-02T19:20:48.783Z,0.80
2022-08-02T19:23:54.534Z,1.30
2022-08-02T19:26:58.104Z,1.02
2022-08-02T19:30:11.822Z,1.00
2022-08-02T19:33:24.845Z,0.90
2022-08-02T19:36:38.313Z,1.00
2022-08-02T19:39:45.742Z,1.10
2022-08-02T19:44:21.884Z,1.08
2022-08-02T19:46:15.817Z,1.08
2022-08-02T19:49:37.971Z,1.30
2022-08-02T19:52:41.028Z,1.17
2022-08-02T19:56:00.000Z,1.40
2022-08-02T19:59:13.206Z,1.40
2022-08-02T20:02:16.951Z,1.10
2022-08-02T20:05:24.073Z,0.90
2022-08-02T20:08:31.685Z,1.20
2022-08-02T20:11:38.852Z,1.27
2022-08-02T20:14:50.689Z,1.23
2022-08-02T20:17:54.488Z,1.30
2022-08-02T20:20:57.393Z,0.93
2022-08-02T20:24:00.339Z,0.90
2022-08-02T20:27:02.924Z,1.00
2022-08-02T20:30:05.827Z,1.00
2022-08-02T20:33:21.209Z,1.08
2022-08-02T20:36:26.902Z,0.80
2022-08-02T20:39:42.745Z,0.93
2022-08-02T20:42:47.732Z,0.98
2022-08-02T20:45:51.307Z,1.10
2022-08-02T20:48:53.269Z,1.00
2022-08-02T20:51:55.403Z,0.95
2022-08-02T20:55:00.423Z,1.17
2022-08-02T20:58:04.699Z,1.15
2022-08-02T21:01:08.594Z,1.10
2022-08-02T21:04:16.294Z,0.73
2022-08-02T21:07:22.245Z,1.10
2022-08-02T21:10:24.187Z,1.20
2022-08-02T21:13:26.587Z,0.93
2022-08-02T21:16:28.584Z,0.98
2022-08-02T21:19:32.115Z,0.75
2022-08-02T21:22:34.189Z,0.90
2022-08-02T21:25:42.520Z,1.13
2022-08-02T21:29:03.109Z,1.15
2022-08-02T21:32:06.459Z,0.70
2022-08-02T21:35:10.442Z,1.20
2022-08-02T21:38:35.246Z,1.08
2022-08-02T21:41:39.952Z,1.08
2022-08-02T21:44:50.720Z,1.20
2022-08-02T21:47:52.807Z,1.00
2022-08-02T21:50:54.809Z,1.30
2022-08-02T21:54:17.858Z,1.30
2022-08-02T21:57:18.866Z,1.20
2022-08-02T22:00:28.231Z,1.00
2022-08-02T22:03:31.708Z,0.70
2022-08-02T22:06:35.563Z,1.23
2022-08-02T22:09:43.419Z,1.10
2022-08-02T22:12:47.225Z,1.00
2022-08-02T22:15:49.212Z,0.80
2022-08-02T22:18:52.813Z,0.80
2022-08-02T22:21:56.031Z,0.97
2022-08-02T22:24:57.976Z,0.70
2022-08-02T22:28:38.085Z,0.90
2022-08-02T22:31:40.547Z,1.07
2022-08-02T22:34:52.376Z,1.30
2022-08-02T22:38:17.051Z,1.00
2022-08-02T22:41:16.818Z,0.90
2022-08-02T22:44:19.010Z,1.00
2022-08-02T22:47:22.043Z,0.80
2022-08-02T22:50:26.150Z,1.23
2022-08-02T22:53:36.140Z,1.30
2022-08-02T22:56:38.509Z,0.90
2022-08-02T22:59:46.708Z,1.10
2022-08-02T23:02:50.533Z,1.00
2022-08-02T23:05:52.433Z,1.00
2022-08-02T23:08:54.348Z,1.27
2022-08-02T23:11:56.283Z,0.97
2022-08-02T23:14:58.559Z,1.40
2022-08-02T23:18:18.858Z,1.23
2022-08-02T23:21:45.522Z,1.40
2022-08-02T23:24:42.723Z,1.17
2022-08-02T23:27:50.662Z,1.27
2022-08-02T23:30:52.979Z,0.90
2022-08-02T23:34:03.896Z,1.20
2022-08-02T23:37:07.023Z,1.57
2022-08-02T23:40:09.821Z,1.00
2022-08-02T23:43:14.873Z,1.33
2022-08-02T23:46:17.349Z,0.87
2022-08-02T23:49:19.924Z,1.00
2022-08-02T23:52:22.023Z,1.10
2022-08-02T23:55:23.859Z,0.87
2022-08-02T23:58:29.291Z,1.30
